Tiempo atmosférico en la estación meteorológica de Abla, Almería (885 m.)



Fecha
DESCASC
Temp. máxima en grados centígrados (hora)
DESCASC
Temp. mínima en grados centígrados (hora)
DESCASC
Temp. media en grados centígrados
DESCASC
Racha de viento máxima en m/sg (hora)
DESCASC
Velocidad máxima media en intervalos de 10 minutos(hora)
DESCASC
Precipitaciones diarias en mm
DESCASC
Precipitaciones de 00:00 a 06:00 en mm
DESCASC
Precipitaciones de 06:00 a 12:00 en mm
DESCASC
Precipitaciones de 12:00 a 18:00 en mm
DESCASC
Precipitaciones de 18:00 a 24:00 en mm
DESCASC
16-01-2020 16.4 (13:40) 3.5 (08:30) 9.9 5.56 (22:20) 3.06 (16:50) 0 0 0 0 0
15-01-2020 17.2 (15:00) 4.4 (02:20) 10.8 5.83 (11:10) 2.78 (03:10) 0 0 0 0 0
14-01-2020 16.2 (16:10) 2.5 (08:40) 9.4 6.94 (21:20) 2.78 (05:20) 0 0 0 0 0
13-01-2020 16.2 (15:00) 0.9 (08:00) 8.6 5.83 (17:20) 2.5 (17:20) 0 0 0 0 0
12-01-2020 16.7 (14:10) 2.7 (00:00) 9.7 5.83 (12:00) 3.06 (22:30) 0 0 0 0 0
11-01-2020 14.5 (14:10) 3.3 (00:00) 8.9 5 (07:50) 2.78 (07:30) 0 0 0 0 0
10-01-2020 13.8 (13:10) 4.9 (00:00) 9.4 6.67 (05:10) 2.78 (02:10) 0 0 0 0 0
09-01-2020 15.9 (15:00) 1.6 (00:00) 8.7 5.56 (17:00) 2.78 (17:00) 0 0 0 0 0
08-01-2020 19.1 (12:10) 5 (00:00) 12.1 8.89 (15:30) 4.17 (15:30) 0 0 0 0 0
07-01-2020 17.4 (13:20) 4.5 (00:00) 10.9 6.11 (23:40) 3.33 (05:50) 0 0 0 0 0
06-01-2020 14.3 (15:50) 1.8 (00:00) 8.1 7.5 (13:30) 3.89 (13:40) 0 0 0 0 0
05-01-2020 14 (15:20) 1 (00:00) 7.5 7.78 (14:10) 3.89 (14:40) 0 0 0 0 0
04-01-2020 12.2 (15:30) 1.9 (00:00) 7 7.22 (12:10) 3.33 (12:20) 0 0 0 0 0
03-01-2020 21 (13:10) 7.4 (00:00) 14.2 6.11 (08:00) 2.78 (08:00) 0 0 0 0 0
02-01-2020 15.5 (16:00) 4.6 (00:00) 10 4.72 (13:40) 2.78 (08:00) 0 0 0 0 0
01-01-2020 17.2 (14:00) 2.9 (00:00) 10.1 5 (16:00) 3.06 (08:40) 0 0 0 0 0
31-12-2019 12.7 (15:00) 2.1 (00:00) 7.4 7.78 (14:40) 3.61 (15:20) 0 0 0 0 0
30-12-2019 13.2 (14:40) 3.6 (00:00) 8.4 8.06 (15:00) 3.61 (13:30) 0 0 0 0 0
29-12-2019 14 (14:20) 1.9 (00:00) 7.9 6.67 (11:50) 3.33 (16:20) 0 0 0 0 0
28-12-2019 19.1 (15:20) 5.1 (00:00) 12.1 6.39 (13:10) 2.78 (13:10) 0 0 0 0 0
27-12-2019 18.7 (14:00) 7 (00:00) 12.9 8.06 (14:20) 3.89 (14:20) 0 0 0 0 0
26-12-2019 24.8 (13:20) 11.1 (00:00) 17.9 6.11 (04:30) 2.5 (07:40) 0 0 0 0 0
25-12-2019 23.9 (14:10) 7.3 (00:00) 15.6 7.22 (21:40) 3.33 (07:10) 0 0 0 0 0
24-12-2019 21.2 (13:50) 7.8 (00:00) 14.5 6.11 (00:30) 2.78 (15:30) 0 0 0 0 0
23-12-2019 24 (14:40) 10.6 (00:00) 17.3 8.89 (06:10) 4.17 (07:10) 0 0 0 0 0
22-12-2019 19 (14:50) 10.7 (00:00) 14.8 12.22 (20:10) 7.78 (20:10) 0 0 0 0 0
21-12-2019 19.1 (13:10) 13.2 (00:00) 16.2 13.33 (16:20) 6.94 (15:10) 0 0 0 0 0
20-12-2019 19.8 (12:00) 13.6 (00:00) 16.7 15.56 (02:50) 6.67 (02:40) 1.1 0 0 1.1 0
19-12-2019 16.4 (16:20) 5.6 (07:00) 11 9.44 (22:40) 3.33 (00:20) 0 0 0 0 0

Gráficas

Temp. máximas Temp. mínimas Temp. medias Precipitaciones Rachas de viento máximas Velocidades máximas media en intervalos de 10 minutos

Datos horarios

Fecha y hora oficial Temperatura (ºC) Velocidad del viento (km/h) Dirección del viento Racha (km/h) Dirección de racha Precipitación (mm) Presión (hPa) Tendencia (hPa) Humedad (%)
2020-01-17 23:00:00 8.7 4 Noroeste 19 Noroeste 0 931 0.9 58
2020-01-17 22:00:00 9.2 4 Norte 14 Norte 0 931 1.5 54
2020-01-17 21:00:00 10.4 3 Noroeste 10 Noroeste 0 930.4 1.8 51
2020-01-17 20:00:00 10.7 0 Calma 16 Noroeste 0 930.1 1.7 49
2020-01-17 19:00:00 11.9 5 Noroeste 18 Oeste 0 929.5 1 47
2020-01-17 18:00:00 13.3 4 Noroeste 16 Norte 0 928.6 0.1 43
2020-01-17 17:00:00 15.2 8 Noroeste 17 Noroeste 0 928.4 -0.7 41
2020-01-17 16:00:00 16.2 6 Noroeste 22 Norte 0 928.5 -1.2 42
2020-01-17 15:00:00 16.6 6 Noroeste 25 Noroeste 0 928.5 -2.1 42
2020-01-17 14:00:00 16.6 10 Noroeste 23 Noroeste 0 929.1 -1.3 42
2020-01-17 13:00:00 16.9 9 Noroeste 25 Noroeste 0 929.7 0 42
2020-01-17 12:00:00 14.8 9 Noroeste 25 Norte 0 930.6 1.1 44
2020-01-17 11:00:00 14.3 10 Noroeste 21 Noroeste 0 930.4 0.9 38
2020-01-17 10:00:00 12.3 6 Noroeste 15 Norte 0 929.7 1.2 42
2020-01-17 09:00:00 9.2 2 Norte 14 Norte 0 929.5 1.5 46
2020-01-17 08:00:00 10.1 6 Noroeste 23 Noroeste 0 929.5 1.8 45
2020-01-17 07:00:00 9.9 7 Noroeste 21 Norte 0 928.5 0.7 49
2020-01-17 06:00:00 7.8 3 Noroeste 19 Norte 0 928 -0.1 52
2020-01-17 05:00:00 6.8 7 Noroeste 18 Noroeste 0 927.7 -0.1 55
2020-01-17 04:00:00 7.1 3 Noroeste 15 Sudoeste 0 927.8 -0.1 53
2020-01-17 03:00:00 8.7 3 Noroeste 18 Oeste 0 928.1 -0.2 51
2020-01-17 02:00:00 7 10 Noroeste 20 Norte 0 927.8 -0.3 50
2020-01-17 01:00:00 7 8 Oeste 17 Oeste 0 927.9 0.1 49
2020-01-17 00:00:00 7 6 Noroeste 17 Noroeste 0 928.3 0.6 49
2020-01-16 23:00:00 9.3 5 Noroeste 20 Noroeste 0 928.1 0.5 46
2020-01-16 22:00:00 8.7 2 Noroeste 13 Oeste 0 927.8 1.1 50
2020-01-16 21:00:00 8.1 0 Calma 8 Noroeste 0 927.7 1.6 53
2020-01-16 20:00:00 8.5 2 Noroeste 9 Noroeste 0 927.6 1.9 53
2020-01-16 19:00:00 9.2 2 Noroeste 12 Nordeste 0 926.7 1.2 49
2020-01-16 18:00:00 11 3 Nordeste 17 Nordeste 0 926.1 0.6 49
2020-01-16 17:00:00 13 7 Este 19 Nordeste 0 925.7 -0.5 40
2020-01-16 16:00:00 14.9 8 Este 14 Este 0 925.5 -1.2 34
2020-01-16 15:00:00 15.7 4 Nordeste 18 Sudeste 0 925.5 -2 33
2020-01-16 14:00:00 16 5 Este 18 Nordeste 0 926.2 -1.6 33
2020-01-16 13:00:00 15.8 8 Nordeste 18 Este 0 926.7 -0.9 35
2020-01-16 12:00:00 14.1 3 Nordeste 10 Noroeste 0 927.5 0.5 38
2020-01-16 11:00:00 12.4 0 Calma 6 Nordeste 0 927.8 0.8 42
2020-01-16 10:00:00 8.6 0 Calma 14 Noroeste 0 927.6 1 50
2020-01-16 09:00:00 6.6 2 Noroeste 13 Oeste 0 927 0.3 53
2020-01-16 08:00:00 3.7 3 Noroeste 12 Oeste 0 927 0.2 56
2020-01-16 07:00:00 5.9 5 Noroeste 15 Oeste 0 926.6 -0.3 51
2020-01-16 06:00:00 6.5 7 Noroeste 13 Oeste 0 926.7 -0.5 52
2020-01-16 05:00:00 6 5 Oeste 10 Noroeste 0 926.8 -0.1 53
2020-01-16 04:00:00 6.7 6 Noroeste 13 Oeste 0 926.9 -0.3 53
2020-01-16 03:00:00 6.6 8 Oeste 13 Noroeste 0 927.2 -0.1 54
2020-01-16 02:00:00 7.5 3 Noroeste 11 Noroeste 0 926.9 -0.5 53
2020-01-16 01:00:00 5.4 4 Noroeste 12 Noroeste 0 927.2 -0.2 57
2020-01-16 00:00:00 6.4 0 Calma 9 Noroeste 0 927.3 0 56
2020-01-15 23:00:00 6.5 5 Noroeste 12 Oeste 0 927.4 0.3 60
2020-01-15 22:00:00 5.9 2 Noroeste 8 Noroeste 0 927.4 0.8 60
2020-01-15 21:00:00 7.3 0 Calma 10 Norte 0 927.3 1.3 56
2020-01-15 20:00:00 8 3 Oeste 6 Norte 0 927.1 2 56
2020-01-15 19:00:00 9 3 Este 16 Nordeste 0 926.6 1.8 51
2020-01-15 18:00:00 10.5 8 Nordeste 20 Nordeste 0 926 1.6 43
2020-01-15 17:00:00 12.8 8 Nordeste 19 Nordeste 0 925.1 0.3 34
2020-01-15 16:00:00 16.3 4 Noroeste 19 Noroeste 0 924.8 -0.2 29
2020-01-15 15:00:00 17 5 Noroeste 21 Noroeste 0 924.4 -1.3 29
2020-01-15 14:00:00 16.5 6 Noroeste 21 Noroeste 0 924.8 -0.9 31
2020-01-15 13:00:00 15.9 7 Noroeste 18 Noroeste 0 925 -0.2 31
2020-01-15 12:00:00 14.5 7 Noroeste 21 Noroeste 0 925.7 1.2 35
2020-01-15 11:00:00 12.4 8 Noroeste 17 Noroeste 0 925.7 1.5 46
2020-01-15 10:00:00 8.3 9 Noroeste 19 Noroeste 0 925.2 2.2 54
2020-01-15 09:00:00 5.3 8 Noroeste 18 Noroeste 0 924.5 2.1 61
2020-01-15 08:00:00 4.8 8 Noroeste 17 Noroeste 0 924.2 1.7 63
2020-01-15 07:00:00 4.5 8 Noroeste 18 Noroeste 0 923 0.3 63
2020-01-15 06:00:00 4.9 6 Noroeste 16 Norte 0 922.4 -0.1 61
2020-01-15 05:00:00 4.8 9 Noroeste 19 Noroeste 0 922.5 0 56
2020-01-15 04:00:00 4.7 8 Noroeste 19 Norte 0 922.7 0.2 57
2020-01-15 03:00:00 5.2 9 Noroeste 19 Noroeste 0 922.5 -0.1 56
2020-01-15 02:00:00 4.7 7 Noroeste 18 Norte 0 922.5 0.1 60
2020-01-15 01:00:00 5.2 8 Noroeste 19 Noroeste 0 922.5 0.4 63
2020-01-15 00:00:00 4.9 8 Noroeste 15 Norte 0 922.6 0.5 63
2020-01-14 23:00:00 5.7 6 Noroeste 16 Noroeste 0 922.4 0.4 57
2020-01-14 22:00:00 7 8 Noroeste 25 Sur 0 922.1 0.4 46
2020-01-14 21:00:00 8.1 4 Noroeste 17 Sudoeste 0 922.1 1.2 42
2020-01-14 20:00:00 8.1 3 Noroeste 9 Noroeste 0 922 1.5 42
2020-01-14 19:00:00 9.2 0 Calma 9 Este 0 921.7 1.4 41
2020-01-14 18:00:00 11.5 0 Calma 12 Noroeste 0 920.9 0.6 28
2020-01-14 17:00:00 13.8 0 Calma 10 Noroeste 0 920.5 -0.4 24
2020-01-14 16:00:00 15.4 3 Nordeste 10 Este 0 920.3 -1 23
2020-01-14 15:00:00 15.1 0 Calma 8 Nordeste 0 920.3 -2 23
2020-01-14 14:00:00 13.2 0 Calma 10 Norte 0 920.9 -1.7 23
2020-01-14 13:00:00 14.6 2 Nordeste 11 Este 0 921.3 -0.8 24
2020-01-14 12:00:00 11.6 4 Nordeste 7 Nordeste 0 922.3 0.3 30
2020-01-14 11:00:00 10.3 2 Nordeste 6 Nordeste 0 922.6 0.9 35
2020-01-14 10:00:00 6.7 0 Calma 12 Norte 0 922.1 1.1 34
2020-01-14 09:00:00 4.9 3 Noroeste 10 Norte 0 922 1.2 40
2020-01-14 08:00:00 4.3 6 Noroeste 17 Noroeste 0 921.7 0.5 41
2020-01-14 07:00:00 4.9 7 Noroeste 17 Noroeste 0 921 -0.4 42
2020-01-14 06:00:00 4.4 7 Noroeste 21 Noroeste 0 920.8 -0.8 45
2020-01-14 05:00:00 4 7 Noroeste 17 Oeste 0 921.2 -0.4 48
2020-01-14 04:00:00 4.1 9 Noroeste 17 Norte 0 921.4 -0.6 48
2020-01-14 03:00:00 4.4 8 Noroeste 16 Norte 0 921.6 -1.1 47
2020-01-14 02:00:00 4.2 5 Noroeste 15 Noroeste 0 921.6 -1.2 48
2020-01-14 01:00:00 5.9 6 Noroeste 14 Noroeste 0 922 -0.6 43
2020-01-14 00:00:00 6 2 Norte 15 Norte 0 922.7 -0.5 43
2020-01-13 23:00:00 5.9 8 Noroeste 17 Noroeste 0 922.8 -0.6 42
2020-01-13 22:00:00 7.4 6 Norte 14 Norte 0 922.6 -0.6 42
2020-01-13 21:00:00 8.1 4 Noroeste 13 Norte 0 923.2 0.4 53
2020-01-13 20:00:00 7.4 2 Oeste 7 Noroeste 0 923.4 1 87
2020-01-13 19:00:00 7.6 0 Calma 13 Este 0 923.2 0.6 84
2020-01-13 18:00:00 9.3 7 Nordeste 21 Este 0 922.8 0.1 77
2020-01-13 17:00:00 12.1 6 Nordeste 16 Este 0 922.4 -1.1 44
2020-01-13 16:00:00 14.6 7 Nordeste 15 Nordeste 0 922.6 -1.8 31
2020-01-13 15:00:00 15.3 4 Nordeste 12 Este 0 922.7 -2.9 29
2020-01-13 14:00:00 13.7 5 Nordeste 13 Este 0 923.5 -2.4 31
2020-01-13 13:00:00 13.1 5 Este 14 Este 0 924.4 -1.4 33
2020-01-13 12:00:00 12.7 3 Nordeste 10 Este 0 925.6 -0.1 37
2020-01-13 11:00:00 9.8 0 Calma 8 Norte 0 925.9 0.1 39
2020-01-13 10:00:00 7 2 Noroeste 12 Sudoeste 0 925.8 0.5 45
2020-01-13 09:00:00 3 0 Calma 9 Noroeste 0 925.7 0.1 58
2020-01-13 08:00:00 1 3 Noroeste 13 Oeste 0 925.8 -0.1 63
2020-01-13 07:00:00 2.7 0 Calma 7 Norte 0 925.3 -0.9 53
2020-01-13 06:00:00 3.3 0 Calma 11 Oeste 0 925.6 -1.1 60
2020-01-13 05:00:00 2.9 0 Calma 8 Noroeste 0 925.9 -1.2 67
2020-01-13 04:00:00 1.4 0 Calma 8 Noroeste 0 926.2 -1.5 68
2020-01-13 03:00:00 2.8 0 Calma 9 Oeste 0 926.7 -1.5 66
2020-01-13 02:00:00 2.2 0 Calma 4 Noroeste 0 927.1 -0.9 65
2020-01-13 01:00:00 2.4 0 Calma 6 Noroeste 0 927.7 -0.3 63
2020-01-13 00:00:00 3.4 0 Calma 8 Oeste 0 928.2 0.4 58
2020-01-12 23:00:00 4.9 6 Noroeste 15 Oeste 0 928 0.2 58
2020-01-12 22:00:00 5.8 2 Noroeste 13 Norte 0 928 0.9 60
2020-01-12 21:00:00 6 2 Norte 9 Noroeste 0 927.8 1.4 56
2020-01-12 20:00:00 6.7 0 Calma 8 Noroeste 0 927.8 1.9 49
2020-01-12 19:00:00 8.1 2 Este 12 Este 0 927.1 1.4 77
2020-01-12 18:00:00 9.4 6 Este 20 Este 0 926.4 0.7 62
2020-01-12 17:00:00 12.7 4 Nordeste 16 Nordeste 0 925.9 -0.2 25
2020-01-12 16:00:00 15.1 3 Norte 17 Noroeste 0 925.7 -1.5 24
2020-01-12 15:00:00 15.3 7 Noroeste 19 Norte 0 925.7 -2.4 24
2020-01-12 14:00:00 16.2 5 Norte 16 Norte 0 926.1 -2.6 25
2020-01-12 13:00:00 15.4 4 Norte 17 Noroeste 0 927.2 -1.4 30
2020-01-12 12:00:00 13.4 9 Noroeste 21 Noroeste 0 928.1 -0.1 35
2020-01-12 11:00:00 11.6 6 Noroeste 13 Noroeste 0 928.7 0.5 43
2020-01-12 10:00:00 7.6 6 Noroeste 18 Norte 0 928.6 0.6 47
2020-01-12 09:00:00 5.2 5 Norte 18 Norte 0 928.2 0.2 58
2020-01-12 08:00:00 4.3 5 Norte 15 Noroeste 0 928.2 -0.2 59
2020-01-12 07:00:00 4.2 4 Noroeste 13 Noroeste 0 928 -0.8 62
2020-01-12 06:00:00 4.8 3 Norte 14 Noroeste 0 928 -0.9 64
2020-01-12 05:00:00 4.7 3 Noroeste 14 Noroeste 0 928.4 -0.1 63
2020-01-12 04:00:00 4.2 2 Noroeste 9 Noroeste 0 928.8 0.1 67
2020-01-12 03:00:00 4.2 0 Calma 9 Norte 0 928.9 -0.2 69
2020-01-12 02:00:00 3.4 0 Calma 9 Oeste 0 928.5 -0.5 72
2020-01-12 01:00:00 3.9 0 Calma 10 Noroeste 0 928.7 -0.1 75
2020-01-12 00:00:00 4.3 0 Calma 5 Oeste 0 929.1 0.5 71
2020-01-11 23:00:00 4.3 0 Calma 6 Noroeste 0 929 0.7 71
2020-01-11 22:00:00 4.8 0 Calma 6 Oeste 0 928.8 1 67
2020-01-11 21:00:00 6.2 0 Calma 5 Noroeste 0 928.6 1.7 62
2020-01-11 20:00:00 7.2 0 Calma 9 Este 0 928.3 1.7 56
2020-01-11 19:00:00 8.2 0 Calma 10 Nordeste 0 927.8 1.4 53
2020-01-11 18:00:00 9.5 2 Noroeste 15 Norte 0 926.9 0.4 49
2020-01-11 17:00:00 10.8 8 Norte 18 Noroeste 0 926.6 0 45
2020-01-11 16:00:00 11.5 4 Nordeste 12 Este 0 926.4 -1.2 45
2020-01-11 15:00:00 12.7 5 Este 15 Sudeste 0 926.5 -2.1 42
2020-01-11 14:00:00 14 6 Noroeste 13 Noroeste 0 926.6 -1.8 40
2020-01-11 13:00:00 11.7 3 Norte 10 Nordeste 0 927.6 0.2 45
2020-01-11 12:00:00 9.6 4 Nordeste 10 Nordeste 0 928.6 1.6 50
2020-01-11 11:00:00 8 2 Nordeste 6 Noroeste 0 928.4 1.7 53
2020-01-11 10:00:00 7.4 3 Norte 14 Noroeste 0 927.4 1 56
2020-01-11 09:00:00 4.2 6 Oeste 16 Noroeste 0 927 0.8 62
2020-01-11 08:00:00 3.9 9 Noroeste 18 Noroeste 0 926.7 0.7 62
2020-01-11 07:00:00 3.8 6 Noroeste 15 Noroeste 0 926.4 0.3 61
2020-01-11 06:00:00 4.7 6 Noroeste 17 Norte 0 926.2 -0.1 57
2020-01-11 05:00:00 4.2 4 Noroeste 12 Noroeste 0 926 0 59
2020-01-11 04:00:00 5.4 2 Norte 12 Noroeste 0 926.1 0.1 55
2020-01-11 03:00:00 5.7 6 Noroeste 14 Noroeste 0 926.3 -0.3 54
2020-01-11 02:00:00 5.9 5 Noroeste 16 Norte 0 926 0.1 52
2020-01-11 01:00:00 5.9 5 Noroeste 15 Noroeste 0 926 0.3 52
2020-01-11 00:00:00 5.8 4 Noroeste 15 Noroeste 0 926.6 1.5 55
2020-01-10 23:00:00 6.9 4 Noroeste 18 Noroeste 0 925.9 1.6 53
2020-01-10 22:00:00 7 3 Noroeste 15 Norte 0 925.7 1.8 60
2020-01-10 21:00:00 7.4 0 Calma 12 Norte 0 925.1 2.2 60
2020-01-10 20:00:00 8.8 4 Noroeste 14 Noroeste 0 924.3 2 53
2020-01-10 19:00:00 9.4 4 Noroeste 13 Sur 0 923.9 1.9 46
2020-01-10 18:00:00 10.7 3 Noroeste 15 Norte 0 922.9 0.7 39
2020-01-10 17:00:00 12.2 3 Norte 17 Noroeste 0 922.3 -0.4 38
2020-01-10 16:00:00 13.3 5 Noroeste 21 Noroeste 0 922 -1.2 37
2020-01-10 15:00:00 13.6 4 Noroeste 20 Norte 0 922.2 -2.1 39
2020-01-10 14:00:00 11.3 6 Noroeste 22 Noroeste 0 922.7 -1.9 43
2020-01-10 13:00:00 13.6 5 Noroeste 22 Noroeste 0 923.2 -0.9 42
2020-01-10 12:00:00 12.7 7 Noroeste 19 Norte 0 924.3 1.6 46
2020-01-10 11:00:00 10.6 9 Noroeste 19 Sur 0 924.6 1.5 53
2020-01-10 10:00:00 8.9 8 Noroeste 21 Noroeste 0 924.1 0.9 55
2020-01-10 09:00:00 6.3 2 Sudoeste 21 Norte 0 922.7 -0.2 64
2020-01-10 08:00:00 5.3 8 Noroeste 17 Noroeste 0 923.1 0.3 68
2020-01-10 07:00:00 5.4 3 Noroeste 17 Oeste 0 923.2 0 68
2020-01-10 06:00:00 5.8 4 Noroeste 24 Noroeste 0 922.9 -0.8 63
2020-01-10 05:00:00 6.8 4 Noroeste 18 Norte 0 922.8 -0.6 58
2020-01-10 04:00:00 6.5 2 Noroeste 18 Noroeste 0 923.2 -0.7 64
2020-01-10 03:00:00 8.9 6 Norte 20 Norte 0 923.7 -0.3 53
2020-01-10 02:00:00 7.4 9 Noroeste 18 Norte 0 923.4 -1 62
2020-01-10 01:00:00 5.4 3 Noroeste 9 Norte 0 923.9 -0.6 94
2020-01-10 00:00:00 6 0 Calma 7 Nordeste 0 924 -0.9 95
2020-01-09 23:00:00 6.2 2 Nordeste 11 Este 0 924.4 -0.5 93
2020-01-09 22:00:00 7.8 2 Nordeste 12 Noroeste 0 924.5 0.2 72
2020-01-09 21:00:00 11.3 4 Noroeste 15 Norte 0 924.9 0.8 56
2020-01-09 20:00:00 8.3 0 Calma 5 Oeste 0 924.9 0.6 77
2020-01-09 19:00:00 7.8 0 Calma 12 Sudeste 0 924.3 0.5 78
2020-01-09 18:00:00 8.9 4 Este 20 Este 0 924.1 -0.1 72
2020-01-09 17:00:00 10.3 10 Este 20 Nordeste 0 924.3 -0.5 64
2020-01-09 16:00:00 14.1 7 Este 15 Este 0 923.8 -1.9 47
2020-01-09 15:00:00 14.5 0 Calma 12 Nordeste 0 924.2 -2.7 46
2020-01-09 14:00:00 12.5 4 Norte 15 Nordeste 0 924.8 -2.5 53
2020-01-09 13:00:00 12.2 5 Nordeste 16 Este 0 925.7 -1.3 57
2020-01-09 12:00:00 10.8 8 Nordeste 17 Nordeste 0 926.9 0.4 63
2020-01-09 11:00:00 9 0 Calma 5 Nordeste 0 927.3 0.9 64
2020-01-09 10:00:00 6.1 0 Calma 6 Noroeste 0 927 0.6 66
2020-01-09 09:00:00 3.4 0 Calma 8 Oeste 0 926.5 0.3 78
2020-01-09 08:00:00 2.7 0 Calma 4 Noroeste 0 926.4 0.1 79
2020-01-09 07:00:00 2.6 0 Calma 6 Oeste 0 926.4 -0.4 77
2020-01-09 06:00:00 2.6 0 Calma 6 Noroeste 0 926.2 -0.8 80
2020-01-09 05:00:00 4.4 4 Oeste 8 Oeste 0 926.3 -0.9 74
2020-01-09 04:00:00 4.1 0 Calma 0 Calma 0 926.8 -0.3 77
2020-01-09 03:00:00 3.7 0 Calma 4 Oeste 0 927 -0.8 79
2020-01-09 02:00:00 4.3 0 Calma 4 Sudoeste 0 927.2 -0.8 76
2020-01-09 01:00:00 4.8 0 Calma 5 Noroeste 0 927.1 -0.7 71
2020-01-09 00:00:00 5.1 0 Calma 3 Noroeste 0 927.8 0.1 74
2020-01-08 23:00:00 6 0 Calma 4 Oeste 0 928 0.3 70
2020-01-08 22:00:00 6.3 0 Calma 10 Noroeste 0 927.8 0.5 67
2020-01-08 21:00:00 8.1 3 Noroeste 8 Norte 0 927.7 0.9 57
2020-01-08 20:00:00 8.2 2 Noroeste 8 Este 0 927.7 1.1 60
2020-01-08 19:00:00 9.2 3 Nordeste 14 Nordeste 0 927.3 1.3 64
2020-01-08 18:00:00 10.8 8 Nordeste 23 Nordeste 0 926.8 0.9 56
2020-01-08 17:00:00 12.9 13 Nordeste 31 Este 0 926.6 0.6 44
2020-01-08 16:00:00 15 15 Este 32 Este 0 926 -0.6 30
2020-01-08 15:00:00 16.7 12 Este 29 Este 0 925.9 -1.6 28
2020-01-08 14:00:00 18.4 11 Este 22 Sudeste 0 926 -1.8 25
2020-01-08 13:00:00 18.4 6 Este 12 Este 0 926.6 -0.9 26
2020-01-08 12:00:00 17.6 3 Nordeste 8 Noroeste 0 927.5 0.2 28
2020-01-08 11:00:00 15.3 0 Calma 8 Sudoeste 0 927.8 0.8 31
2020-01-08 10:00:00 12.4 2 Oeste 15 Oeste 0 927.5 0.8 34
2020-01-08 09:00:00 8.4 5 Oeste 21 Norte 0 927.3 0.6 36
2020-01-08 08:00:00 7.7 6 Noroeste 18 Sur 0 927 0.2 37
2020-01-08 07:00:00 8.9 4 Sudoeste 22 Sudoeste 0 926.7 -0.1 35
2020-01-08 06:00:00 8.3 5 Noroeste 19 Norte 0 926.7 -0.1 36
2020-01-08 05:00:00 8.6 4 Noroeste 19 Noroeste 0 926.8 -0.4 35
2020-01-08 04:00:00 9.6 7 Sudoeste 20 Sudoeste 0 926.8 -0.9 35
2020-01-08 03:00:00 9.3 3 Oeste 19 Noroeste 0 926.8 -1.2 35
2020-01-08 02:00:00 9.4 4 Noroeste 18 Noroeste 0 927.2 -1.1 35
2020-01-08 01:00:00 9.8 4 Noroeste 18 Sudoeste 0 927.7 -0.7 35
2020-01-08 00:00:00 10.2 4 Sudoeste 22 Noroeste 0 928 -0.5 35
2020-01-07 23:00:00 9.9 3 Sudoeste 20 Oeste 0 928.3 -0.1 36
2020-01-07 22:00:00 10 3 Sudoeste 20 Sudoeste 0 928.4 0 37
2020-01-07 21:00:00 10.1 5 Sudoeste 18 Noroeste 0 928.5 0.7 37
2020-01-07 20:00:00 10.8 6 Noroeste 19 Noroeste 0 928.4 1 38
2020-01-07 19:00:00 10.5 6 Noroeste 8 Oeste 0 928.4 0.7 40
2020-01-07 18:00:00 12.2 2 Noroeste 9 Norte 0 927.8 0.3 38
2020-01-07 17:00:00 14.1 0 Calma 15 Nordeste 0 927.4 -0.4 34
2020-01-07 16:00:00 14.7 7 Este 20 Este 0 927.7 -0.7 33
2020-01-07 15:00:00 15.4 9 Nordeste 20 Nordeste 0 927.5 -1.8 29
2020-01-07 14:00:00 15.9 10 Nordeste 20 Este 0 927.8 -1.9 27
2020-01-07 13:00:00 17.2 6 Nordeste 15 Nordeste 0 928.4 -0.9 27
2020-01-07 12:00:00 16.1 6 Nordeste 14 Nordeste 0 929.3 0.4 28
2020-01-07 11:00:00 13.8 2 Nordeste 10 Norte 0 929.7 0.8 34
2020-01-07 10:00:00 11.6 4 Noroeste 13 Noroeste 0 929.3 0.6 35
2020-01-07 09:00:00 8.6 8 Oeste 19 Oeste 0 928.9 0.3 39
2020-01-07 08:00:00 8.7 3 Noroeste 16 Oeste 0 928.9 0.3 39
2020-01-07 07:00:00 6.1 5 Noroeste 21 Sur 0 928.7 0.5 41
2020-01-07 06:00:00 6.7 5 Noroeste 20 Oeste 0 928.6 0.5 41
2020-01-07 05:00:00 6.6 9 Noroeste 18 Noroeste 0 928.6 0.3 43
2020-01-07 04:00:00 5.5 7 Noroeste 16 Noroeste 0 928.2 -0.3 45
2020-01-07 03:00:00 5.9 3 Noroeste 11 Noroeste 0 928.1 -0.5 44
2020-01-07 02:00:00 6.3 6 Noroeste 17 Oeste 0 928.3 -0.3 45
2020-01-07 01:00:00 8.3 7 Oeste 16 Oeste 0 928.5 0.3 43
2020-01-07 00:00:00 8.1 4 Noroeste 12 Oeste 0 928.6 0.7 41
2020-01-06 23:00:00 8.1 0 Calma 14 Oeste 0 928.6 0.7 43
2020-01-06 22:00:00 7.3 8 Noroeste 13 Noroeste 0 928.2 1.1 45
2020-01-06 21:00:00 7.9 4 Oeste 13 Noroeste 0 927.9 1.3 55
2020-01-06 20:00:00 7.2 0 Calma 9 Sur 0 927.9 1.8 46
2020-01-06 19:00:00 8.9 2 Oeste 9 Noroeste 0 927.1 1.3 48
2020-01-06 18:00:00 10.1 2 Norte 10 Nordeste 0 926.6 0.5 49
2020-01-06 17:00:00 12.1 4 Norte 15 Nordeste 0 926.1 -0.3 43
2020-01-06 16:00:00 13.9 8 Nordeste 20 Nordeste 0 925.8 -1.2 41
2020-01-06 15:00:00 13.8 10 Este 24 Este 0 926.1 -1.3 40
2020-01-06 14:00:00 13.6 11 Nordeste 27 Nordeste 0 926.4 -1.3 38
2020-01-06 13:00:00 12.8 13 Este 23 Nordeste 0 927 -0.4 42
2020-01-06 12:00:00 12.1 5 Este 14 Este 0 927.4 0.4 36
2020-01-06 11:00:00 11.2 0 Calma 2 Norte 0 927.7 1 38
2020-01-06 10:00:00 7 0 Calma 4 Oeste 0 927.4 1.2 48